Pagrindinis puslapis
METAR-TAF:

METAR-TAF

Oro uostai :

Estešundas-Frösön, Švedija

platuma: 63-11N, ilguma: 014-30E, Aukštis: 376 m

Dabartinis oras

Ataskaita buvo paskelbta 25 minutes, ne 20:20 UTC
Vėjas 5 kt iš Vakarų/Šiaurės Vakarų, svyruoja nuo Vakarų/Pietvakarių ir Šiaurės Vakarų
Temperatūra 18°C
Drėgmė 49%
Slėgis 1012 hPa
Matomumas 10 km arba daugiau
lietus

METAR: ESNZ 172020Z AUTO 29005KT 250V310 9999 -RA FEW053/// 18/07 Q1012

Laikas: 22:45 (20:45 UTC)

Prognozė

Ataskaita buvo paskelbta 6 valandos ir 15 minutes, ne 14:30 UTC
Prognozė galioja nuo 17 metu 15 UTC su 17 metu 19 UTC
Vėjas 10 kt iš Pietų
Matomumas 10 km arba daugiau
nėra debesų žemiau 1500 m ir nėra kamuolinių lietaus debesų

TAF: ESNZ 171430Z 1715/1719 18010KT CAVOK

Orai ataskaitas ir orų prognozės (METAR, TAF).

turimą stotys yra geltonos ir raudonos taškus žemėlapyje.

Perkelti pele per norėdami pamatyti stoties vardą.

Tada spustelėkite, norėdami matyti oro stebėjimo ir prognozės.

Norėdami pakeisti žemėlapį: spustelėkite ant žalios mygtukų su juodo kryžiaus žemyn,; žalią mygtuką su brūkšneliu, jei norite nutolinti; arba žalių rodyklių gretimoms žemėlapius.


METAR-TAF: